Sainte Genevieve, Missouri
Current Conditions -  °F | °C
As of 6:35 PM on Friday 24 Oct 2014 (Local Time) from KSAR Reporting Station
Clear Clear  
Wind Chill: 63°   Ceiling: Unl
Heat Index: 63°   Visibility: 10mi
Dew Point: 49°   Wind: 3mph
Humidity: 61%   Direction: 160°SSE
Pressure: 30.03"   Gusts: NA
Location:  37.98°N, 90.04°W
Report Text: KSAR 242335Z AUTO 16003KT 10SM CLR 17/10 A3003 RMK AO2 T01740097
Loading
Personal Weather Stations






























Interactive Weather Map
Tropical Storm Tracking
New forecast layout! Learn more

10-Day Weather Forecast

Advertisements
Track Severe Weather on mobile